Time;durP1;ratioP1;P1;durP2;ratioP2;P2;SDS_P1;SDS_P2;PMS_P1;PMS_P2;Temp;Humidity;BMP_temperature;BMP_pressure;BME280_temperature;BME280_humidity;BME280_pressure;Samples;Min_cycle;Max_cycle;Signal;HPM_P1;HPM_P2
2023/05/21 00:01:58;;;;;;;7.35;2.00;;;;;;;16.89;60.52;100047.22;10460815;28;20098;-68
2023/05/21 00:06:59;;;;;;;11.27;2.83;;;;;;;16.81;60.36;100051.00;10460575;28;20543;-68
2023/05/21 00:12:01;;;;;;;10.80;3.30;;;;;;;16.34;61.21;99988.72;10460756;28;20048;-68
2023/05/21 00:17:02;;;;;;;11.73;3.83;;;;;;;16.72;61.47;100060.31;10419286;28;20076;-68
2023/05/21 00:22:03;;;;;;;8.88;3.20;;;;;;;16.56;61.94;100053.56;10419187;28;20080;-68
2023/05/21 00:27:04;;;;;;;11.25;3.10;;;;;;;16.49;62.16;100051.97;10419380;28;20103;-68
2023/05/21 00:32:05;;;;;;;10.18;4.72;;;;;;;15.36;62.09;99875.56;10419428;28;20516;-68
2023/05/21 00:37:08;;;;;;;15.52;5.10;;;;;;;16.25;62.91;100038.25;10419675;28;20056;-68
2023/05/21 00:42:09;;;;;;;22.90;2.80;;;;;;;16.45;62.91;100083.72;10418820;28;20075;-67
2023/05/21 00:47:12;;;;;;;8.30;2.80;;;;;;;16.20;64.10;100048.78;10417759;28;20505;-67
2023/05/21 00:52:19;;;;;;;8.05;2.58;;;;;;;16.28;64.67;100067.31;10417577;28;20119;-67
2023/05/21 00:57:21;;;;;;;12.95;4.15;;;;;;;15.82;65.68;99990.56;10417433;28;20406;-68
2023/05/21 01:02:22;;;;;;;9.55;3.53;;;;;;;16.24;65.69;100049.16;10416681;28;20555;-68
2023/05/21 01:07:23;;;;;;;10.50;3.58;;;;;;;15.94;66.17;100006.81;10417677;28;20041;-68
2023/05/21 01:12:24;;;;;;;12.32;3.55;;;;;;;16.08;66.30;100032.53;10416856;28;20041;-67
2023/05/21 01:17:27;;;;;;;6.65;2.80;;;;;;;15.59;66.76;99942.03;10415871;28;20037;-67
2023/05/21 01:22:31;;;;;;;6.32;2.40;;;;;;;16.06;66.98;100006.97;10417060;28;20053;-68
2023/05/21 01:27:32;;;;;;;8.05;2.30;;;;;;;16.02;66.09;99995.88;10416657;28;20052;-68
2023/05/21 01:32:37;;;;;;;6.28;2.20;;;;;;;16.04;67.70;100009.88;10416617;28;20042;-67
2023/05/21 01:38:08;;;;;;;8.35;2.38;;;;;;;16.22;67.98;100041.34;10416320;28;20045;-67
2023/05/21 01:43:10;;;;;;;13.60;3.13;;;;;;;15.73;66.70;99983.78;10415646;28;20540;-67
2023/05/21 01:48:12;;;;;;;5.72;2.80;;;;;;;16.19;67.85;100047.13;10416143;28;20120;-67
2023/05/21 01:53:14;;;;;;;6.18;2.88;;;;;;;15.96;69.14;100027.00;10414595;28;20053;-67
2023/05/21 01:58:15;;;;;;;6.70;2.85;;;;;;;15.57;70.02;99973.53;10415126;28;20129;-67
2023/05/21 02:03:18;;;;;;;12.30;3.22;;;;;;;15.94;70.94;100036.28;10415710;28;20159;-67
2023/05/21 02:08:19;;;;;;;7.70;2.90;;;;;;;15.85;70.89;100018.78;10414117;28;20123;-67
2023/05/21 02:13:21;;;;;;;9.00;2.70;;;;;;;15.85;71.24;100024.97;10413071;28;20136;-67
2023/05/21 02:18:22;;;;;;;5.00;3.40;;;;;;;15.97;71.73;100039.38;10414337;28;20046;-67
2023/05/21 02:23:22;;;;;;;7.30;3.53;;;;;;;16.05;72.28;100050.88;10414963;28;20041;-68
2023/05/21 02:28:23;;;;;;;7.03;3.50;;;;;;;16.09;72.58;100063.63;10412406;28;20068;-67
2023/05/21 02:33:24;;;;;;;6.32;3.20;;;;;;;15.45;72.56;99951.94;10413227;28;20115;-67
2023/05/21 02:38:25;;;;;;;15.77;4.30;;;;;;;15.79;73.17;99990.16;10413584;28;20116;-67
2023/05/21 02:43:26;;;;;;;6.90;3.10;;;;;;;16.16;73.89;100059.09;10414464;28;20124;-68
2023/05/21 02:48:27;;;;;;;5.80;3.35;;;;;;;16.24;74.20;100054.53;10413406;28;20120;-67
2023/05/21 02:53:28;;;;;;;9.45;3.47;;;;;;;16.30;74.99;100072.44;10414112;28;20140;-68
2023/05/21 02:58:29;;;;;;;9.55;4.22;;;;;;;16.29;75.87;100066.25;10413486;28;20073;-67
2023/05/21 03:03:31;;;;;;;13.75;4.30;;;;;;;16.33;76.22;100058.59;10413917;28;20094;-67
2023/05/21 03:08:31;;;;;;;11.00;4.80;;;;;;;16.33;77.45;100058.59;10413638;28;20041;-68
2023/05/21 03:13:32;;;;;;;9.27;4.72;;;;;;;16.41;77.42;100061.88;10412619;28;20245;-67
2023/05/21 03:18:33;;;;;;;9.27;5.18;;;;;;;16.57;78.01;100070.47;10412636;28;20042;-67
2023/05/21 03:23:34;;;;;;;7.10;4.68;;;;;;;16.17;78.55;99991.06;10418335;28;20062;-68
2023/05/21 03:28:34;;;;;;;13.18;5.38;;;;;;;16.61;78.84;100050.25;10421221;28;20060;-68
2023/05/21 03:33:35;;;;;;;11.48;5.20;;;;;;;16.61;79.07;100018.88;10420670;28;20091;-68
2023/05/21 03:38:36;;;;;;;5.93;4.13;;;;;;;16.91;78.55;100055.06;10420409;28;20045;-67
2023/05/21 03:43:37;;;;;;;10.52;4.57;;;;;;;17.04;78.28;100065.69;10420900;28;20037;-68
2023/05/21 03:48:37;;;;;;;7.90;4.57;;;;;;;17.16;78.15;100068.50;10420868;28;20052;-67
2023/05/21 03:53:38;;;;;;;7.78;4.22;;;;;;;17.22;78.19;100070.31;10419741;28;20037;-68
2023/05/21 03:58:39;;;;;;;8.57;4.55;;;;;;;17.31;78.07;100079.72;10420315;28;20045;-67
2023/05/21 04:03:40;;;;;;;7.60;4.30;;;;;;;17.38;78.25;100071.63;10420251;28;20171;-68
2023/05/21 04:08:41;;;;;;;9.02;4.65;;;;;;;16.85;78.82;99984.31;10420788;28;20076;-68
2023/05/21 04:13:42;;;;;;;7.93;4.63;;;;;;;17.38;78.91;100060.88;10419203;28;20069;-68
2023/05/21 04:18:43;;;;;;;14.35;4.50;;;;;;;17.04;79.03;99986.00;10419597;28;20077;-68
2023/05/21 04:23:43;;;;;;;5.95;4.40;;;;;;;17.54;79.19;100058.47;10418850;28;20045;-67
2023/05/21 04:28:44;;;;;;;7.50;4.30;;;;;;;17.53;78.62;100050.66;10419352;28;20069;-68
2023/05/21 04:33:45;;;;;;;8.13;4.20;;;;;;;17.30;78.18;100006.44;10419569;28;20049;-68
2023/05/21 04:38:47;;;;;;;8.18;4.15;;;;;;;17.77;77.94;100062.41;10418117;28;20045;-67
2023/05/21 04:43:48;;;;;;;11.48;4.85;;;;;;;17.90;77.59;100056.91;10418420;28;20049;-68
2023/05/21 04:48:51;;;;;;;8.15;4.10;;;;;;;18.06;76.69;100052.81;10418381;28;20508;-68
2023/05/21 04:53:52;;;;;;;5.75;3.92;;;;;;;18.18;76.10;100053.69;10418638;28;20052;-67
2023/05/21 04:58:53;;;;;;;8.25;4.13;;;;;;;18.19;75.68;100052.66;10418337;28;20042;-68
2023/05/21 05:03:55;;;;;;;8.68;4.35;;;;;;;18.38;74.68;100056.16;10436079;28;20044;-68
2023/05/21 05:08:56;;;;;;;7.57;3.63;;;;;;;18.59;73.25;100060.22;10437384;28;20130;-67
2023/05/21 05:13:56;;;;;;;7.45;3.70;;;;;;;18.78;71.90;100042.19;10417124;28;20060;-69
2023/05/21 05:18:57;;;;;;;5.03;3.42;;;;;;;19.12;70.03;100051.41;10445883;28;20041;-68
2023/05/21 05:23:58;;;;;;;6.72;3.78;;;;;;;18.70;69.41;99959.91;10457666;28;20131;-68
2023/05/21 05:28:59;;;;;;;6.22;3.58;;;;;;;19.18;68.77;100038.91;10456601;28;20057;-69
2023/05/21 05:34:00;;;;;;;6.13;3.72;;;;;;;19.13;68.19;100036.88;10422980;28;20052;-69
2023/05/21 05:39:00;;;;;;;11.93;3.88;;;;;;;18.98;68.14;100000.69;10416843;28;20424;-68
2023/05/21 05:44:01;;;;;;;7.78;3.80;;;;;;;19.46;67.69;100065.16;10415952;28;20047;-69
2023/05/21 05:49:02;;;;;;;12.32;4.30;;;;;;;19.42;67.69;100061.28;10419265;28;20036;-68
2023/05/21 05:54:03;;;;;;;10.52;4.20;;;;;;;19.07;67.45;100016.28;10439883;28;20493;-68
2023/05/21 05:59:04;;;;;;;7.18;3.63;;;;;;;19.05;67.45;100055.25;10434758;28;20106;-69
2023/05/21 06:04:05;;;;;;;6.03;3.40;;;;;;;19.03;67.69;100058.19;10415346;28;20485;-68
2023/05/21 06:09:05;;;;;;;7.65;3.67;;;;;;;19.05;67.34;100053.38;10415369;28;20046;-67
2023/05/21 06:14:06;;;;;;;8.52;3.53;;;;;;;18.76;66.91;100020.09;10414566;28;20083;-68
2023/05/21 06:19:07;;;;;;;12.32;4.13;;;;;;;19.07;66.76;100064.75;10415474;28;20041;-68
2023/05/21 06:24:08;;;;;;;18.08;4.15;;;;;;;19.00;67.07;100069.41;10434699;28;20049;-68
2023/05/21 06:29:10;;;;;;;29.98;4.53;;;;;;;18.99;67.05;100065.06;10418911;28;20088;-69
2023/05/21 06:34:11;;;;;;;7.47;3.70;;;;;;;18.98;66.77;100066.13;10441780;28;20041;-69
2023/05/21 06:39:12;;;;;;;10.00;6.07;;;;;;;18.96;66.88;100059.31;10442426;28;20053;-68
2023/05/21 06:44:15;;;;;;;10.07;4.97;;;;;;;18.98;66.58;100055.34;10455475;28;20063;-68
2023/05/21 06:49:15;;;;;;;19.50;8.90;;;;;;;18.99;66.58;100048.09;10454882;28;20048;-68
2023/05/21 06:54:16;;;;;;;8.30;5.28;;;;;;;18.75;66.18;100004.16;10452377;28;20037;-68
2023/05/21 06:59:17;;;;;;;17.63;7.35;;;;;;;19.11;66.26;100041.69;10431028;28;20135;-69
2023/05/21 07:04:18;;;;;;;15.43;5.55;;;;;;;19.04;65.91;99987.13;10454578;28;20041;-69
2023/05/21 07:09:18;;;;;;;28.17;9.93;;;;;;;19.39;65.19;100032.94;10425505;28;20045;-68
2023/05/21 07:14:19;;;;;;;18.73;9.18;;;;;;;19.42;65.00;100020.88;10416222;28;20041;-68
2023/05/21 07:19:20;;;;;;;10.52;4.45;;;;;;;19.59;64.31;100029.91;10421635;28;20055;-68
2023/05/21 07:24:21;;;;;;;13.18;6.60;;;;;;;19.15;64.38;99927.09;10412831;28;20140;-68
2023/05/21 07:29:22;;;;;;;15.77;5.53;;;;;;;19.43;63.04;99955.19;10413173;28;20053;-68
2023/05/21 07:34:23;;;;;;;6.25;3.70;;;;;;;19.79;61.82;100012.56;10412226;28;20136;-68
2023/05/21 07:39:24;;;;;;;8.40;3.38;;;;;;;19.82;61.47;100006.72;10410977;28;20136;-68
2023/05/21 07:44:25;;;;;;;6.90;3.63;;;;;;;19.89;59.42;100001.19;10449169;28;20171;-68
2023/05/21 07:49:25;;;;;;;9.82;2.97;;;;;;;20.08;59.01;99994.59;10453125;28;20501;-68
2023/05/21 07:54:26;;;;;;;6.20;2.90;;;;;;;20.38;58.83;99983.56;10453465;28;20037;-67
2023/05/21 07:59:27;;;;;;;6.13;2.50;;;;;;;20.72;56.75;99994.47;10433296;28;20132;-68
2023/05/21 08:04:28;;;;;;;11.57;2.90;;;;;;;20.81;54.75;99973.28;10421306;28;20194;-68
2023/05/21 08:09:31;;;;;;;9.18;2.95;;;;;;;20.96;54.42;99977.03;10460412;28;20369;-69
2023/05/21 08:14:31;;;;;;;13.18;3.53;;;;;;;21.06;53.26;99965.59;10459388;28;20033;-68
2023/05/21 08:19:32;;;;;;;5.82;2.72;;;;;;;20.95;52.59;99929.50;10460254;28;20473;-68
2023/05/21 08:24:33;;;;;;;6.88;3.03;;;;;;;21.39;52.60;99980.19;10452947;28;20051;-68
2023/05/21 08:29:34;;;;;;;17.95;3.67;;;;;;;21.67;52.53;99984.63;10422677;28;20528;-68
2023/05/21 08:34:35;;;;;;;9.85;2.70;;;;;;;21.35;52.36;99908.75;10418577;28;20041;-69
2023/05/21 08:39:36;;;;;;;7.95;2.83;;;;;;;21.95;52.12;99967.38;10417525;28;20045;-68
2023/05/21 08:44:43;;;;;;;6.88;2.58;;;;;;;21.94;51.99;99967.66;10418134;28;20099;-68
2023/05/21 08:49:44;;;;;;;5.80;2.67;;;;;;;22.06;52.23;99954.81;10418678;28;20187;-68
2023/05/21 08:54:45;;;;;;;7.28;2.40;;;;;;;22.11;52.14;99957.56;10418825;28;20049;-70
2023/05/21 08:59:46;;;;;;;14.82;3.00;;;;;;;22.17;51.26;99945.78;10428853;28;20140;-69
2023/05/21 09:04:48;;;;;;;7.97;2.70;;;;;;;22.07;50.88;99900.44;10417484;28;20536;-69
2023/05/21 09:10:11;;;;;;;9.55;2.53;;;;;;;22.49;48.35;99936.88;10417685;28;20493;-70
2023/05/21 09:15:12;;;;;;;;;;;;;;;22.66;48.71;99944.88;10417454;28;20114;-68
2023/05/21 09:20:14;;;;;;;12.13;3.20;;;;;;;22.47;49.29;99934.44;10415764;28;19927;-69
2023/05/21 09:25:19;;;;;;;5.43;2.63;;;;;;;22.30;48.43;99891.25;10419099;28;20029;-68
2023/05/21 09:30:20;;;;;;;34.95;4.32;;;;;;;22.69;49.44;99925.41;10436683;28;20161;-69
2023/05/21 09:35:21;;;;;;;12.73;3.38;;;;;;;22.83;49.65;99902.25;10429989;28;20033;-70
2023/05/21 09:40:23;;;;;;;9.60;3.05;;;;;;;22.76;49.51;99924.13;10439509;28;20033;-69
2023/05/21 09:45:25;;;;;;;7.28;3.72;;;;;;;22.64;49.33;99869.31;10431362;28;20041;-68
2023/05/21 09:50:26;;;;;;;10.55;4.65;;;;;;;22.31;48.77;99821.69;10435926;28;20068;-68
2023/05/21 09:55:27;;;;;;;11.30;4.47;;;;;;;22.90;49.48;99926.41;10431047;28;20044;-68
2023/05/21 10:00:28;;;;;;;14.02;3.47;;;;;;;22.87;49.73;99916.09;10436181;28;20044;-68
2023/05/21 10:05:30;;;;;;;6.60;3.55;;;;;;;23.05;49.46;99931.13;10436071;28;20045;-69
2023/05/21 10:10:31;;;;;;;7.63;3.33;;;;;;;23.01;49.83;99926.25;10437705;28;20485;-69
2023/05/21 10:15:37;;;;;;;5.00;2.45;;;;;;;23.03;48.56;99923.25;10430933;28;20048;-70
2023/05/21 10:20:38;;;;;;;6.90;2.88;;;;;;;23.06;48.22;99892.94;10430965;28;20176;-71
2023/05/21 10:25:40;;;;;;;8.07;2.65;;;;;;;23.24;46.99;99881.69;10435164;28;20170;-68
2023/05/21 10:30:42;;;;;;;14.70;3.67;;;;;;;23.53;45.70;99900.25;10432654;28;20420;-67
2023/05/21 10:35:47;;;;;;;14.02;2.63;;;;;;;23.57;43.78;99919.50;10437627;28;20118;-69
2023/05/21 10:40:48;;;;;;;42.45;3.28;;;;;;;23.47;44.28;99917.56;10429329;28;20049;-68
2023/05/21 10:46:00;;;;;;;5.40;2.42;;;;;;;23.50;43.07;99924.34;10433996;28;20041;-68
2023/05/21 10:51:25;;;;;;;5.43;1.90;;;;;;;22.87;43.38;99840.25;10434824;28;20040;-68
2023/05/21 10:56:47;;;;;;;7.63;2.50;;;;;;;23.21;43.93;99909.31;10430163;28;20064;-68
2023/05/21 11:01:54;;;;;;;13.13;2.50;;;;;;;23.19;44.25;99937.75;10433083;28;20036;-69
2023/05/21 11:06:57;;;;;;;6.25;2.00;;;;;;;22.96;43.16;99909.13;10436008;28;20041;-69
2023/05/21 11:11:59;;;;;;;5.30;2.03;;;;;;;22.53;42.70;99862.22;10439230;28;20044;-68
2023/05/21 11:17:01;;;;;;;3.55;1.95;;;;;;;22.92;42.44;99916.13;10435522;28;20037;-69
2023/05/21 11:22:26;;;;;;;5.57;2.03;;;;;;;23.08;42.45;99917.06;10435413;28;20049;-67
2023/05/21 11:27:40;;;;;;;6.53;2.35;;;;;;;23.12;42.66;99913.56;10437485;28;20095;-69
2023/05/21 11:33:06;;;;;;;6.07;2.03;;;;;;;23.35;43.11;99916.97;10434032;28;20836;-68
2023/05/21 11:38:08;;;;;;;6.72;2.40;;;;;;;23.47;42.88;99899.41;10436924;28;20041;-68
2023/05/21 11:43:09;;;;;;;6.20;2.10;;;;;;;23.30;42.43;99822.06;10441221;28;20040;-69
2023/05/21 11:48:12;;;;;;;8.07;2.75;;;;;;;23.98;41.80;99877.09;10446744;28;20041;-68
2023/05/21 11:53:14;;;;;;;5.20;2.20;;;;;;;23.67;41.13;99802.97;10446812;28;20505;-68
2023/05/21 11:58:18;;;;;;;3.08;2.00;;;;;;;24.25;40.71;99865.19;10443422;28;20033;-68
2023/05/21 12:03:25;;;;;;;6.65;2.60;;;;;;;24.62;39.63;99880.44;10434329;28;20521;-68
2023/05/21 12:08:26;;;;;;;14.65;3.00;;;;;;;24.67;40.38;99869.59;10420043;28;20088;-69
2023/05/21 12:13:27;;;;;;;7.38;2.70;;;;;;;24.50;40.98;99857.13;10419208;28;20068;-68
2023/05/21 12:18:28;;;;;;;7.57;2.88;;;;;;;23.95;40.63;99779.97;10419222;28;20492;-69
2023/05/21 12:23:30;;;;;;;8.13;2.28;;;;;;;24.10;41.24;99834.25;10419378;28;20065;-70
2023/05/21 12:28:31;;;;;;;5.28;2.25;;;;;;;24.09;41.79;99877.94;10419862;28;20147;-69
2023/05/21 12:33:35;;;;;;;7.93;2.38;;;;;;;23.88;42.26;99882.50;10428805;28;20118;-68
2023/05/21 12:38:36;;;;;;;5.60;2.40;;;;;;;23.74;41.92;99882.19;10421410;28;20041;-68
2023/05/21 12:43:37;;;;;;;4.18;2.20;;;;;;;23.59;42.34;99863.94;10418715;28;20040;-69
2023/05/21 12:48:38;;;;;;;16.13;2.85;;;;;;;23.57;43.12;99868.81;10419048;28;20088;-69
2023/05/21 12:53:42;;;;;;;15.10;7.55;;;;;;;23.59;42.26;99865.84;10418129;28;20476;-68
2023/05/21 12:58:49;;;;;;;7.22;2.67;;;;;;;23.54;41.60;99850.34;10417463;28;20463;-69
2023/05/21 13:03:50;;;;;;;8.27;2.38;;;;;;;23.53;42.38;99851.44;10418182;28;20068;-68
2023/05/21 13:08:50;;;;;;;12.88;3.63;;;;;;;23.48;42.57;99837.84;10417347;28;20050;-69
2023/05/21 13:13:51;;;;;;;15.25;4.35;;;;;;;23.52;42.20;99830.84;10423119;28;20049;-68
2023/05/21 13:18:52;;;;;;;19.65;5.70;;;;;;;22.98;42.24;99760.72;10435505;28;20069;-68
2023/05/21 13:23:53;;;;;;;15.00;4.90;;;;;;;23.35;43.08;99825.63;10436744;28;20041;-69
2023/05/21 13:28:54;;;;;;;13.20;6.30;;;;;;;22.83;43.78;99756.00;10427667;28;20488;-70
2023/05/21 13:33:54;;;;;;;22.05;6.97;;;;;;;23.12;43.78;99788.13;10445988;28;20049;-68
2023/05/21 13:38:55;;;;;;;6.65;3.50;;;;;;;23.29;43.60;99823.16;10435050;28;20052;-68
2023/05/21 13:43:56;;;;;;;11.45;2.70;;;;;;;23.14;43.48;99807.66;10439328;28;20049;-68
2023/05/21 13:48:57;;;;;;;13.50;2.10;;;;;;;22.74;44.10;99758.41;10415685;28;20124;-69
2023/05/21 13:53:58;;;;;;;4.50;1.55;;;;;;;23.10;44.52;99822.81;10440388;28;20101;-69
2023/05/21 13:58:59;;;;;;;16.67;2.17;;;;;;;23.10;44.49;99818.19;10457630;28;20080;-68
2023/05/21 14:04:03;;;;;;;5.20;1.70;;;;;;;22.62;44.36;99740.75;10425656;28;20516;-68
2023/05/21 14:09:04;;;;;;;14.95;1.85;;;;;;;22.65;43.73;99746.44;10426472;28;20191;-68
2023/05/21 14:14:05;;;;;;;4.95;1.80;;;;;;;23.07;41.64;99805.19;10415331;28;20179;-68
2023/05/21 14:19:05;;;;;;;7.45;1.90;;;;;;;23.01;41.31;99820.59;10415337;28;20044;-68
2023/05/21 14:24:06;;;;;;;8.65;2.05;;;;;;;22.81;41.15;99789.84;10414882;28;20378;-69
2023/05/21 14:29:07;;;;;;;20.42;2.75;;;;;;;22.84;40.90;99816.41;10432758;28;20052;-68
2023/05/21 14:34:09;;;;;;;11.05;2.65;;;;;;;22.82;41.20;99810.41;10430660;28;20040;-68
2023/05/21 14:39:09;;;;;;;23.05;3.40;;;;;;;22.67;43.13;99825.47;10434616;28;20037;-69
2023/05/21 14:44:10;;;;;;;12.63;2.60;;;;;;;22.56;44.72;99823.81;10430813;28;20049;-69
2023/05/21 14:49:12;;;;;;;5.20;1.80;;;;;;;22.56;45.44;99831.94;10436178;28;20045;-68
2023/05/21 14:54:13;;;;;;;8.77;1.90;;;;;;;22.39;46.31;99820.41;10430057;28;20072;-68
2023/05/21 14:59:14;;;;;;;13.65;2.25;;;;;;;22.32;46.53;99829.56;10426577;28;20560;-68
2023/05/21 15:04:15;;;;;;;8.95;2.13;;;;;;;22.30;46.78;99826.31;10438648;28;20127;-68
2023/05/21 15:09:15;;;;;;;14.82;2.55;;;;;;;22.21;47.25;99833.25;10434606;28;20033;-68
2023/05/21 15:14:16;;;;;;;21.67;3.75;;;;;;;22.26;47.74;99856.84;10433831;28;20412;-68
2023/05/21 15:19:17;;;;;;;31.92;4.00;;;;;;;22.23;47.86;99866.28;10429846;28;20059;-68
2023/05/21 15:24:18;;;;;;;26.23;2.58;;;;;;;21.70;48.34;99794.06;10441810;28;20076;-68
2023/05/21 15:29:19;;;;;;;12.75;2.17;;;;;;;21.96;48.60;99862.75;10430478;28;20085;-68
2023/05/21 15:34:19;;;;;;;11.85;2.65;;;;;;;21.88;49.04;99854.00;10434471;28;20191;-68
2023/05/21 15:39:20;;;;;;;8.07;2.10;;;;;;;21.80;49.20;99854.44;10435296;28;20041;-68
2023/05/21 15:44:21;;;;;;;11.40;2.33;;;;;;;21.40;49.28;99804.28;10427923;28;20044;-68
2023/05/21 15:49:22;;;;;;;5.97;2.22;;;;;;;21.79;49.49;99877.16;10429638;28;20047;-68
2023/05/21 15:54:23;;;;;;;6.10;2.25;;;;;;;21.45;50.10;99829.72;10432473;28;20137;-68
2023/05/21 15:59:26;;;;;;;10.38;2.17;;;;;;;21.31;50.13;99819.28;10429177;28;20041;-68
2023/05/21 16:04:26;;;;;;;7.03;2.20;;;;;;;21.67;51.12;99876.47;10427005;28;20063;-69
2023/05/21 16:09:27;;;;;;;7.10;2.33;;;;;;;21.31;52.86;99850.88;10434779;28;20029;-68
2023/05/21 16:14:28;;;;;;;6.35;2.63;;;;;;;21.34;54.25;99889.03;10430470;28;20143;-68
2023/05/21 16:19:29;;;;;;;9.43;2.58;;;;;;;21.32;55.30;99907.34;10430639;28;21429;-68
2023/05/21 16:24:29;;;;;;;16.58;2.60;;;;;;;20.92;55.59;99856.28;10432404;28;20093;-68
2023/05/21 16:29:31;;;;;;;14.60;2.78;;;;;;;21.02;56.06;99886.13;10437200;28;20041;-68
2023/05/21 16:34:33;;;;;;;17.27;3.10;;;;;;;21.09;56.30;99900.31;10432429;28;20049;-68
2023/05/21 16:39:34;;;;;;;9.52;2.83;;;;;;;21.02;56.57;99901.53;10439343;28;20045;-68
2023/05/21 16:44:36;;;;;;;8.18;2.33;;;;;;;21.00;56.75;99909.03;10440146;28;21167;-68
2023/05/21 16:49:37;;;;;;;6.82;2.38;;;;;;;20.95;56.96;99899.81;10441152;28;20048;-68
2023/05/21 16:54:38;;;;;;;8.45;2.65;;;;;;;20.53;56.93;99831.97;10435555;28;20044;-68
2023/05/21 16:59:38;;;;;;;6.65;2.40;;;;;;;20.70;56.77;99861.63;10437310;28;20159;-68
2023/05/21 17:04:39;;;;;;;11.57;2.60;;;;;;;20.83;56.75;99876.69;10433858;28;20037;-68
2023/05/21 17:09:40;;;;;;;12.32;2.83;;;;;;;20.87;56.47;99888.59;10443455;28;20424;-69
2023/05/21 17:14:41;;;;;;;7.45;2.30;;;;;;;20.86;56.51;99874.31;10437797;28;20065;-68
2023/05/21 17:19:42;;;;;;;6.85;2.05;;;;;;;20.91;56.49;99879.78;10437015;28;20052;-68
2023/05/21 17:24:43;;;;;;;14.20;2.92;;;;;;;20.71;56.52;99842.50;10437356;28;20044;-67
2023/05/21 17:29:43;;;;;;;6.90;2.08;;;;;;;20.85;56.38;99864.56;10434800;28;20061;-67
2023/05/21 17:34:44;;;;;;;9.05;2.53;;;;;;;20.69;56.47;99849.19;10452229;28;20509;-67
2023/05/21 17:39:45;;;;;;;9.07;2.40;;;;;;;20.33;56.42;99810.00;10415535;28;20485;-68
2023/05/21 17:44:46;;;;;;;8.63;2.53;;;;;;;20.50;56.34;99854.81;10416113;28;20128;-68
2023/05/21 17:49:46;;;;;;;22.40;2.55;;;;;;;20.72;56.38;99897.28;10415998;28;20048;-68
2023/05/21 17:54:47;;;;;;;9.23;2.67;;;;;;;20.64;56.60;99897.69;10449819;28;20044;-68
2023/05/21 17:59:48;;;;;;;13.52;2.60;;;;;;;20.57;56.80;99897.03;10455990;28;20532;-68
2023/05/21 18:04:49;;;;;;;10.43;2.83;;;;;;;20.42;57.54;99882.19;10456747;28;20037;-67
2023/05/21 18:09:49;;;;;;;9.18;2.75;;;;;;;20.46;57.32;99904.94;10455756;28;20123;-68
2023/05/21 18:14:50;;;;;;;12.82;2.65;;;;;;;20.25;57.69;99870.56;10456699;28;20053;-68
2023/05/21 18:19:51;;;;;;;8.27;2.22;;;;;;;20.35;58.22;99897.72;10456471;28;20127;-69
2023/05/21 18:24:52;;;;;;;8.10;2.50;;;;;;;20.20;58.74;99883.97;10455998;28;20041;-68
2023/05/21 18:29:52;;;;;;;8.80;2.55;;;;;;;20.23;59.32;99888.88;10455937;28;20534;-68
2023/05/21 18:34:53;;;;;;;7.68;2.58;;;;;;;20.14;60.34;99876.84;10455771;28;20075;-70
2023/05/21 18:39:54;;;;;;;7.38;2.40;;;;;;;19.69;60.69;99808.38;10456009;28;20049;-67
2023/05/21 18:44:55;;;;;;;7.53;2.88;;;;;;;20.02;60.75;99866.13;10454806;28;20072;-67
2023/05/21 18:49:55;;;;;;;11.38;2.20;;;;;;;20.05;61.37;99874.53;10454084;28;20045;-67
2023/05/21 18:54:56;;;;;;;9.85;2.28;;;;;;;19.95;62.61;99870.81;10440404;28;20041;-67
2023/05/21 18:59:57;;;;;;;9.00;2.40;;;;;;;19.87;63.36;99866.66;10414033;28;20056;-67
2023/05/21 19:04:59;;;;;;;7.07;2.38;;;;;;;19.69;64.11;99843.41;10410209;28;20049;-69
2023/05/21 19:09:59;;;;;;;6.05;2.88;;;;;;;19.78;64.71;99862.72;10412760;28;20045;-67
2023/05/21 19:15:01;;;;;;;8.43;2.80;;;;;;;19.70;65.47;99855.81;10412897;28;20115;-67
2023/05/21 19:20:04;;;;;;;5.82;2.80;;;;;;;19.23;65.58;99777.81;10434840;28;20482;-68
2023/05/21 19:25:05;;;;;;;6.63;2.90;;;;;;;19.64;66.77;99847.84;10419760;28;20052;-67
2023/05/21 19:30:06;;;;;;;8.93;2.83;;;;;;;19.47;67.60;99837.00;10412997;28;20069;-67
2023/05/21 19:35:07;;;;;;;9.75;2.80;;;;;;;18.62;67.57;99693.91;10413210;28;20120;-67
2023/05/21 19:40:09;;;;;;;11.15;2.97;;;;;;;19.47;68.91;99832.41;10411405;28;20520;-69
2023/05/21 19:45:10;;;;;;;11.15;2.70;;;;;;;19.05;68.87;99773.41;10412940;28;20049;-67
2023/05/21 19:50:11;;;;;;;6.90;2.42;;;;;;;19.32;69.48;99826.72;10412325;28;20033;-67
2023/05/21 19:55:12;;;;;;;13.25;2.78;;;;;;;19.32;69.89;99835.63;10412919;28;20041;-67
2023/05/21 20:00:14;;;;;;;13.55;3.10;;;;;;;19.11;69.88;99818.22;10411486;28;20457;-68
2023/05/21 20:05:15;;;;;;;6.25;2.80;;;;;;;18.87;70.07;99789.69;10418136;28;20095;-67
2023/05/21 20:10:15;;;;;;;8.50;2.97;;;;;;;19.10;71.73;99842.69;10420019;28;20037;-67
2023/05/21 20:15:17;;;;;;;15.20;2.85;;;;;;;18.88;73.57;99823.66;10419925;28;20451;-67
2023/05/21 20:20:21;;;;;;;18.00;3.17;;;;;;;18.82;75.63;99840.75;10418616;28;20076;-67
2023/05/21 20:25:22;;;;;;;6.45;2.53;;;;;;;18.29;76.62;99769.00;10418633;28;20456;-67
2023/05/21 20:30:26;;;;;;;19.05;3.17;;;;;;;18.68;77.00;99840.94;10417846;28;20061;-67
2023/05/21 20:35:27;;;;;;;11.52;3.38;;;;;;;18.61;77.65;99842.91;10418520;28;20045;-68
2023/05/21 20:40:28;;;;;;;9.57;2.47;;;;;;;18.47;77.75;99836.13;10418433;28;20045;-67
2023/05/21 20:45:29;;;;;;;11.65;3.10;;;;;;;18.44;77.67;99833.91;10418065;28;20140;-67
2023/05/21 20:50:30;;;;;;;8.25;2.45;;;;;;;18.29;77.68;99810.13;10418884;28;20404;-67
2023/05/21 20:55:33;;;;;;;11.75;2.38;;;;;;;18.27;77.99;99824.84;10418348;28;20042;-67
2023/05/21 21:00:34;;;;;;;14.77;2.90;;;;;;;18.22;78.01;99826.38;10417970;28;20037;-67
2023/05/21 21:05:35;;;;;;;9.02;2.97;;;;;;;18.13;78.06;99830.44;10417722;28;20556;-67
2023/05/21 21:10:37;;;;;;;9.80;2.83;;;;;;;18.05;78.04;99822.72;10418023;28;20037;-69
2023/05/21 21:15:38;;;;;;;8.48;2.65;;;;;;;18.08;77.76;99810.69;10417982;28;20064;-67
2023/05/21 21:20:39;;;;;;;8.20;2.92;;;;;;;17.52;77.36;99721.34;10416927;28;20074;-67
2023/05/21 21:25:40;;;;;;;6.13;2.58;;;;;;;17.64;77.13;99727.59;10416864;28;20037;-67
2023/05/21 21:30:41;;;;;;;10.43;3.10;;;;;;;18.10;76.96;99793.28;10415659;28;20061;-68
2023/05/21 21:35:42;;;;;;;10.20;2.50;;;;;;;18.03;76.98;99800.59;10417365;28;20473;-67
2023/05/21 21:40:43;;;;;;;8.85;2.58;;;;;;;17.96;77.08;99781.91;10441289;28;20103;-67
2023/05/21 21:45:43;;;;;;;11.70;2.70;;;;;;;17.86;76.78;99772.75;10414874;28;20128;-67
2023/05/21 21:50:44;;;;;;;6.45;2.97;;;;;;;16.98;76.97;99643.44;10450449;28;20060;-68
2023/05/21 21:55:45;;;;;;;9.40;3.17;;;;;;;17.49;77.13;99729.88;10456978;28;20393;-68
2023/05/21 22:00:46;;;;;;;9.50;2.88;;;;;;;17.65;77.34;99782.97;10458024;28;20412;-67
2023/05/21 22:05:49;;;;;;;7.72;2.70;;;;;;;17.42;77.50;99772.13;10456922;28;20041;-67
2023/05/21 22:10:50;;;;;;;5.03;2.70;;;;;;;17.25;77.48;99745.88;10457027;28;20514;-67
2023/05/21 22:15:50;;;;;;;6.85;2.65;;;;;;;17.19;77.39;99746.78;10421961;28;20128;-68
2023/05/21 22:20:51;;;;;;;6.60;2.70;;;;;;;17.11;77.45;99744.41;10414537;28;20075;-67
2023/05/21 22:25:52;;;;;;;6.75;2.58;;;;;;;16.67;77.17;99660.53;10414311;28;20171;-67
2023/05/21 22:30:53;;;;;;;6.15;2.70;;;;;;;16.84;76.98;99685.72;10413997;28;20088;-67
2023/05/21 22:35:54;;;;;;;7.20;2.47;;;;;;;17.29;76.95;99751.59;10414824;28;20045;-67
2023/05/21 22:40:55;;;;;;;6.57;2.65;;;;;;;17.37;77.14;99756.66;10413858;28;20038;-67
2023/05/21 22:45:56;;;;;;;6.65;2.40;;;;;;;17.39;77.49;99764.50;10413372;28;20569;-67
2023/05/21 22:50:57;;;;;;;5.63;2.53;;;;;;;17.25;77.46;99745.06;10413869;28;20136;-67
2023/05/21 22:55:58;;;;;;;7.85;2.38;;;;;;;16.33;77.92;99595.75;10413134;28;20041;-67
2023/05/21 23:00:59;;;;;;;5.50;2.70;;;;;;;17.13;77.94;99746.88;10413458;28;20488;-67
2023/05/21 23:05:59;;;;;;;8.10;2.65;;;;;;;17.13;78.07;99746.88;10412295;28;20076;-68
2023/05/21 23:11:00;;;;;;;5.40;2.80;;;;;;;16.61;77.94;99669.47;10412992;28;20045;-68